Time;durP1;ratioP1;P1;durP2;ratioP2;P2;SDS_P1;SDS_P2;PMS_P1;PMS_P2;Temp;Humidity;BMP_temperature;BMP_pressure;BME280_temperature;BME280_humidity;BME280_pressure;Samples;Min_cycle;Max_cycle;Signal;HPM_P1;HPM_P2
2023/12/15 00:02:21;;;;;;;23.40;12.73;;;;;;;5.67;100.00;102595.13;5072765;28;20048;-70
2023/12/15 00:04:49;;;;;;;18.92;12.43;;;;;;;5.69;100.00;102605.63;5071195;28;20051;-71
2023/12/15 00:07:16;;;;;;;24.67;13.02;;;;;;;5.70;100.00;102610.00;5082685;28;20036;-71
2023/12/15 00:09:43;;;;;;;18.25;13.25;;;;;;;5.70;100.00;102608.25;5071465;28;20127;-71
2023/12/15 00:12:10;;;;;;;21.98;12.32;;;;;;;5.71;100.00;102612.63;5068481;28;20124;-71
2023/12/15 00:14:37;;;;;;;23.35;13.10;;;;;;;5.73;100.00;102610.94;5068767;28;20127;-71
2023/12/15 00:17:04;;;;;;;17.88;12.32;;;;;;;5.74;100.00;102623.19;5050602;28;20048;-71
2023/12/15 00:19:34;;;;;;;22.48;12.43;;;;;;;5.73;100.00;102628.41;5069875;28;20045;-71
2023/12/15 00:22:01;;;;;;;17.92;12.18;;;;;;;5.73;100.00;102633.63;5069861;28;20075;-71
2023/12/15 00:24:28;;;;;;;19.60;12.75;;;;;;;5.75;100.00;102637.13;5070098;28;20044;-71
2023/12/15 00:26:55;;;;;;;22.60;13.70;;;;;;;5.78;100.00;102647.66;5070198;28;20122;-70
2023/12/15 00:29:23;;;;;;;22.13;13.05;;;;;;;5.80;100.00;102651.19;5069672;28;20712;-70
2023/12/15 00:31:50;;;;;;;21.08;12.65;;;;;;;5.81;100.00;102646.84;5069654;28;20530;-70
2023/12/15 00:34:17;;;;;;;19.02;13.23;;;;;;;5.82;100.00;102646.88;5080895;28;20052;-70
2023/12/15 00:36:44;;;;;;;21.60;12.93;;;;;;;5.82;100.00;102648.59;5070677;28;20551;-69
2023/12/15 00:39:11;;;;;;;16.08;11.95;;;;;;;5.82;100.00;102656.44;5067717;28;20064;-69
2023/12/15 00:41:38;;;;;;;18.27;12.82;;;;;;;5.83;100.00;102646.03;5084100;28;20052;-69
2023/12/15 00:44:05;;;;;;;20.30;12.95;;;;;;;5.85;100.00;102646.91;5066442;28;20040;-69
2023/12/15 00:46:32;;;;;;;20.50;12.60;;;;;;;5.87;100.00;102647.84;5067143;28;20106;-69
2023/12/15 00:48:59;;;;;;;18.08;13.45;;;;;;;5.88;100.00;102652.22;5070693;28;20058;-71
2023/12/15 00:51:26;;;;;;;20.33;13.23;;;;;;;5.89;100.00;102651.38;5071407;28;20054;-69
2023/12/15 00:53:53;;;;;;;22.95;14.52;;;;;;;5.93;100.00;102656.66;5088433;28;20123;-70
2023/12/15 00:56:20;;;;;;;26.70;14.73;;;;;;;5.93;100.00;102661.91;5071165;28;20044;-70
2023/12/15 00:58:48;;;;;;;22.58;14.32;;;;;;;5.93;100.00;102665.38;5070761;28;20052;-70
2023/12/15 01:01:15;;;;;;;22.75;15.35;;;;;;;5.94;100.00;102666.28;5069987;28;20074;-70
2023/12/15 01:03:42;;;;;;;23.05;14.52;;;;;;;5.94;100.00;102654.06;5084428;28;20121;-70
2023/12/15 01:06:09;;;;;;;24.60;15.55;;;;;;;5.95;100.00;102650.59;5061716;28;20036;-70
2023/12/15 01:08:36;;;;;;;22.58;14.45;;;;;;;5.96;100.00;102643.59;5069459;28;20071;-70
2023/12/15 01:11:04;;;;;;;20.52;13.98;;;;;;;5.98;100.00;102658.50;5066620;28;20044;-70
2023/12/15 01:13:31;;;;;;;22.88;15.57;;;;;;;6.00;100.00;102658.56;5070988;28;20055;-70
2023/12/15 01:15:58;;;;;;;23.55;15.82;;;;;;;6.00;100.00;102646.34;5067337;28;20123;-70
2023/12/15 01:18:25;;;;;;;25.73;15.27;;;;;;;6.01;100.00;102655.09;5068840;28;20041;-70
2023/12/15 01:20:53;;;;;;;26.00;16.10;;;;;;;6.02;100.00;102656.88;5066506;28;20712;-70
2023/12/15 01:23:20;;;;;;;26.10;16.05;;;;;;;6.01;100.00;102661.19;5069425;28;20123;-72
2023/12/15 01:25:47;;;;;;;24.23;16.17;;;;;;;6.00;100.00;102662.06;5067389;28;20113;-70
2023/12/15 01:28:14;;;;;;;23.20;16.63;;;;;;;6.02;100.00;102669.97;5068579;28;20055;-70
2023/12/15 01:30:41;;;;;;;26.88;16.58;;;;;;;6.03;100.00;102675.22;5065676;28;20037;-72
2023/12/15 01:33:08;;;;;;;24.02;16.17;;;;;;;6.05;100.00;102672.63;5066856;28;20583;-69
2023/12/15 01:35:35;;;;;;;23.27;16.20;;;;;;;6.05;100.00;102680.50;5076529;28;20040;-70
2023/12/15 01:38:02;;;;;;;25.80;16.30;;;;;;;6.05;100.00;102691.84;5073578;28;20041;-72
2023/12/15 01:40:29;;;;;;;28.63;17.33;;;;;;;6.05;100.00;102693.59;5068024;28;20148;-70
2023/12/15 01:43:00;;;;;;;25.55;16.75;;;;;;;6.08;100.00;102695.38;5081198;28;20064;-70
2023/12/15 01:45:27;;;;;;;28.73;17.30;;;;;;;6.09;100.00;102700.63;5067629;28;20044;-70
2023/12/15 01:47:55;;;;;;;23.60;16.77;;;;;;;6.10;100.00;102698.91;5068678;28;20055;-70
2023/12/15 01:50:22;;;;;;;28.02;19.73;;;;;;;6.11;100.00;102706.78;5082829;28;20041;-70
2023/12/15 01:52:50;;;;;;;29.35;18.70;;;;;;;6.12;100.00;102705.03;5068828;28;20045;-70
2023/12/15 01:55:17;;;;;;;31.23;17.58;;;;;;;6.11;100.00;102709.41;5083683;28;20071;-70
2023/12/15 01:57:44;;;;;;;26.42;18.10;;;;;;;6.09;100.00;102715.47;5067915;28;20563;-70
2023/12/15 02:00:12;;;;;;;27.85;18.35;;;;;;;6.08;100.00;102711.94;5075638;28;20040;-70
2023/12/15 02:02:39;;;;;;;35.20;19.83;;;;;;;6.07;100.00;102718.03;5065541;28;20040;-72
2023/12/15 02:05:06;;;;;;;29.70;19.50;;;;;;;6.06;100.00;102705.78;5069717;28;20040;-70
2023/12/15 02:07:34;;;;;;;36.58;20.98;;;;;;;6.06;100.00;102709.31;5084312;28;20543;-70
2023/12/15 02:10:01;;;;;;;33.03;20.20;;;;;;;6.05;100.00;102712.78;5068789;28;20068;-70
2023/12/15 02:12:28;;;;;;;30.02;21.30;;;;;;;6.06;100.00;102711.94;5080775;28;20533;-70
2023/12/15 02:14:55;;;;;;;31.75;20.33;;;;;;;6.08;100.00;102722.41;5067113;28;20043;-70
2023/12/15 02:17:22;;;;;;;33.58;22.02;;;;;;;6.10;100.00;102725.09;5067844;28;20048;-70
2023/12/15 02:19:49;;;;;;;39.55;22.65;;;;;;;6.10;100.00;102714.63;5066518;28;20040;-70
2023/12/15 02:22:25;;;;;;;35.60;22.17;;;;;;;6.13;100.00;102707.69;5067566;28;20075;-70
2023/12/15 02:24:52;;;;;;;37.65;21.58;;;;;;;6.14;100.00;102712.09;5084207;28;20040;-70
2023/12/15 02:27:19;;;;;;;36.28;22.25;;;;;;;6.15;100.00;102719.09;5066507;28;20496;-70
2023/12/15 02:29:46;;;;;;;39.47;22.10;;;;;;;6.16;100.00;102728.69;5066948;28;20033;-70
2023/12/15 02:32:13;;;;;;;33.67;22.13;;;;;;;6.16;100.00;102741.78;5065033;28;20496;-69
2023/12/15 02:34:41;;;;;;;39.08;23.75;;;;;;;6.16;100.00;102739.16;5066768;28;20676;-70
2023/12/15 02:37:08;;;;;;;35.65;21.92;;;;;;;6.18;100.00;102740.06;5067454;28;20040;-70
2023/12/15 02:39:38;;;;;;;38.95;23.42;;;;;;;6.20;100.00;102742.75;5068254;28;20137;-70
2023/12/15 02:42:05;;;;;;;37.70;21.17;;;;;;;6.19;100.00;102752.31;5066800;28;20146;-70
2023/12/15 02:44:33;;;;;;;38.53;21.98;;;;;;;6.19;100.00;102749.69;5066745;28;20519;-70
2023/12/15 02:47:00;;;;;;;40.42;22.52;;;;;;;6.19;100.00;102760.16;5067451;28;20154;-70
2023/12/15 02:49:27;;;;;;;37.72;21.98;;;;;;;6.20;100.00;102769.81;5065245;28;20045;-71
2023/12/15 02:51:54;;;;;;;41.97;22.25;;;;;;;6.21;100.00;102773.28;5064621;28;20040;-70
2023/12/15 02:54:21;;;;;;;38.10;21.88;;;;;;;6.24;100.00;102769.88;5069965;28;20056;-70
2023/12/15 02:56:48;;;;;;;42.22;24.58;;;;;;;6.25;100.00;102766.41;5066810;28;20079;-70
2023/12/15 02:59:15;;;;;;;33.60;22.17;;;;;;;6.26;100.00;102758.56;5066219;28;20048;-71
2023/12/15 03:01:43;;;;;;;45.83;25.10;;;;;;;6.29;100.00;102757.72;5075446;28;20041;-70
2023/12/15 03:04:10;;;;;;;38.05;22.80;;;;;;;6.28;100.00;102769.94;5079819;28;20033;-70
2023/12/15 03:06:37;;;;;;;44.22;24.20;;;;;;;6.30;100.00;102769.97;5082112;28;20131;-70
2023/12/15 03:09:04;;;;;;;38.92;21.90;;;;;;;6.31;100.00;102772.59;5067866;28;20067;-70
2023/12/15 03:11:31;;;;;;;37.28;22.13;;;;;;;6.33;100.00;102772.66;5066079;28;20047;-70
2023/12/15 03:13:58;;;;;;;46.65;24.83;;;;;;;6.34;100.00;102771.81;5066888;28;20090;-70
2023/12/15 03:16:25;;;;;;;41.80;24.45;;;;;;;6.35;100.00;102778.81;5070632;28;20040;-70
2023/12/15 03:18:52;;;;;;;41.28;22.88;;;;;;;6.35;100.00;102790.16;5087532;28;20052;-70
2023/12/15 03:21:19;;;;;;;39.30;23.15;;;;;;;6.34;100.00;102783.16;5066551;28;20131;-71
2023/12/15 03:23:46;;;;;;;42.08;24.08;;;;;;;6.35;100.00;102789.28;5059188;28;20052;-71
2023/12/15 03:26:13;;;;;;;42.00;24.23;;;;;;;6.37;100.00;102796.31;5064691;28;20051;-71
2023/12/15 03:28:40;;;;;;;45.88;25.10;;;;;;;6.39;100.00;102798.09;5067640;28;20064;-71
2023/12/15 03:31:08;;;;;;;45.05;24.45;;;;;;;6.39;100.00;102798.94;5067370;28;20063;-71
2023/12/15 03:33:36;;;;;;;40.08;24.25;;;;;;;6.39;100.00;102796.34;5061835;28;20523;-70
2023/12/15 03:36:04;;;;;;;42.25;23.67;;;;;;;6.40;100.00;102807.72;5051693;28;20064;-70
2023/12/15 03:38:34;;;;;;;39.40;23.95;;;;;;;6.43;100.00;102815.59;5065506;28;20049;-71
2023/12/15 03:41:01;;;;;;;44.08;24.17;;;;;;;6.43;100.00;102821.75;5064143;28;20075;-70
2023/12/15 03:43:28;;;;;;;42.38;24.45;;;;;;;6.47;100.00;102820.06;5062451;28;20036;-70
2023/12/15 03:45:55;;;;;;;46.17;23.67;;;;;;;6.48;100.00;102821.84;5064116;28;20500;-70
2023/12/15 03:48:22;;;;;;;44.08;23.73;;;;;;;6.47;100.00;102820.94;5064425;28;20041;-70
2023/12/15 03:50:49;;;;;;;42.50;24.83;;;;;;;6.49;100.00;102828.84;5071333;28;20041;-70
2023/12/15 03:53:16;;;;;;;42.30;23.13;;;;;;;6.50;100.00;102835.84;5065489;28;20044;-70
2023/12/15 03:55:44;;;;;;;48.28;24.98;;;;;;;6.50;100.00;102833.22;5069924;28;20044;-71
2023/12/15 03:58:11;;;;;;;46.78;23.88;;;;;;;6.52;100.00;102828.88;5070543;28;20044;-71
2023/12/15 04:00:38;;;;;;;41.40;25.05;;;;;;;6.53;100.00;102835.88;5068755;28;20508;-71
2023/12/15 04:03:05;;;;;;;41.45;23.55;;;;;;;6.53;100.00;102826.31;5072244;28;20041;-71
2023/12/15 04:05:32;;;;;;;41.20;23.15;;;;;;;6.55;100.00;102835.94;5076694;28;20056;-70
2023/12/15 04:07:59;;;;;;;45.83;24.45;;;;;;;6.57;100.00;102837.72;5086609;28;20091;-71
2023/12/15 04:10:27;;;;;;;42.65;23.65;;;;;;;6.57;100.00;102834.19;5071234;28;20049;-72
2023/12/15 04:12:56;;;;;;;45.35;24.15;;;;;;;6.59;100.00;102840.34;5067515;28;20045;-71
2023/12/15 04:15:23;;;;;;;49.70;24.85;;;;;;;6.61;100.00;102833.41;5069344;28;20522;-71
2023/12/15 04:17:50;;;;;;;44.78;24.27;;;;;;;6.60;100.00;102835.16;5070085;28;20044;-71
2023/12/15 04:20:18;;;;;;;47.03;24.85;;;;;;;6.61;100.00;102836.03;5069280;28;20048;-72
2023/12/15 04:22:45;;;;;;;51.53;27.17;;;;;;;6.63;100.00;102850.06;5068327;28;20043;-72
2023/12/15 04:25:12;;;;;;;47.22;26.10;;;;;;;6.63;100.00;102845.69;5068067;28;20587;-71
2023/12/15 04:27:39;;;;;;;44.30;24.25;;;;;;;6.65;100.00;102850.97;5070438;28;20048;-71
2023/12/15 04:30:07;;;;;;;53.58;26.13;;;;;;;6.65;100.00;102856.22;5070029;28;20128;-71
2023/12/15 04:32:34;;;;;;;48.60;25.02;;;;;;;6.65;100.00;102857.09;5066998;28;20135;-71
2023/12/15 04:35:02;;;;;;;53.78;25.98;;;;;;;6.65;100.00;102851.84;5066946;28;20094;-71
2023/12/15 04:37:29;;;;;;;51.03;25.02;;;;;;;6.66;100.00;102866.72;5068147;28;20040;-71
2023/12/15 04:39:56;;;;;;;53.45;26.92;;;;;;;6.68;100.00;102857.16;5073972;28;20054;-72
2023/12/15 04:42:23;;;;;;;52.97;26.17;;;;;;;6.69;100.00;102868.50;5073959;28;20059;-72
2023/12/15 04:44:50;;;;;;;49.15;23.85;;;;;;;6.70;100.00;102869.41;5066684;28;20051;-72
2023/12/15 04:47:17;;;;;;;50.42;25.98;;;;;;;6.68;100.00;102869.34;5066577;28;20060;-72
2023/12/15 04:49:44;;;;;;;52.08;26.55;;;;;;;6.67;100.00;102867.59;5081251;28;20040;-71
2023/12/15 04:52:11;;;;;;;55.70;27.63;;;;;;;6.68;100.00;102875.50;5068414;28;20048;-71
2023/12/15 04:54:38;;;;;;;54.33;28.00;;;;;;;6.68;100.00;102877.22;5067062;28;20153;-71
2023/12/15 04:57:05;;;;;;;56.78;27.92;;;;;;;6.68;100.00;102882.47;5068662;28;20040;-71
2023/12/15 04:59:39;;;;;;;58.22;27.85;;;;;;;6.68;100.00;102879.84;5069356;28;20115;-71
2023/12/15 05:02:07;;;;;;;54.47;27.30;;;;;;;6.67;100.00;102878.97;5068085;28;20055;-71
2023/12/15 05:04:34;;;;;;;61.30;29.92;;;;;;;6.67;100.00;102875.44;5068113;28;20047;-71
2023/12/15 05:07:04;;;;;;;59.88;29.00;;;;;;;6.68;100.00;102885.97;5066551;28;20040;-70
2023/12/15 05:09:31;;;;;;;64.00;29.50;;;;;;;6.68;100.00;102888.59;5069224;28;20070;-71
2023/12/15 05:11:58;;;;;;;63.92;30.02;;;;;;;6.68;100.00;102885.97;5068730;28;20492;-71
2023/12/15 05:14:25;;;;;;;64.35;30.77;;;;;;;6.68;100.00;102891.22;5066770;28;20048;-71
2023/12/15 05:16:53;;;;;;;63.53;30.38;;;;;;;6.71;100.00;102900.00;5084941;28;20098;-72
2023/12/15 05:19:20;;;;;;;71.72;30.90;;;;;;;6.72;100.00;102902.66;5083532;28;20052;-71
2023/12/15 05:21:47;;;;;;;62.95;29.20;;;;;;;6.71;100.00;102893.00;5068861;28;20708;-71
2023/12/15 05:24:15;;;;;;;64.38;29.08;;;;;;;6.73;100.00;102898.28;5070033;28;20072;-71
2023/12/15 05:26:42;;;;;;;64.10;29.15;;;;;;;6.73;100.00;102898.28;5068923;28;20051;-70
2023/12/15 05:29:10;;;;;;;61.50;28.33;;;;;;;6.73;100.00;102907.03;5069273;28;20146;-70
2023/12/15 05:31:38;;;;;;;70.65;30.77;;;;;;;6.74;100.00;102911.44;5066282;28;20064;-71
2023/12/15 05:34:14;;;;;;;62.00;28.10;;;;;;;6.75;100.00;102912.31;5046427;28;20394;-70
2023/12/15 05:36:42;;;;;;;52.88;24.02;;;;;;;6.76;100.00;102920.22;5067473;28;20047;-73
2023/12/15 05:39:14;;;;;;;74.20;32.67;;;;;;;6.80;100.00;102924.66;5067767;28;20041;-72
2023/12/15 05:41:42;;;;;;;61.17;28.00;;;;;;;6.82;100.00;102932.53;5056501;28;20113;-72
2023/12/15 05:44:11;;;;;;;80.30;31.98;;;;;;;6.84;100.00;102941.31;5090470;28;20624;-73
2023/12/15 05:46:42;;;;;;;59.92;28.42;;;;;;;6.82;100.00;102949.16;5067106;28;20045;-73
2023/12/15 05:49:10;;;;;;;65.13;28.80;;;;;;;6.86;100.00;102942.22;5042637;28;20043;-73
2023/12/15 05:51:38;;;;;;;57.65;25.83;;;;;;;6.95;100.00;102941.53;5066315;28;20161;-73
2023/12/15 05:54:06;;;;;;;60.97;29.23;;;;;;;7.05;100.00;102942.56;5067483;28;20044;-72
2023/12/15 05:56:33;;;;;;;62.05;28.60;;;;;;;7.12;100.00;102940.09;5066580;28;20043;-73
2023/12/15 05:59:00;;;;;;;55.67;27.52;;;;;;;7.18;100.00;102938.41;5064255;28;20048;-72
2023/12/15 06:01:28;;;;;;;75.97;33.10;;;;;;;7.23;100.00;102939.38;5067702;28;20071;-73
2023/12/15 06:03:55;;;;;;;54.10;27.27;;;;;;;7.28;100.00;102933.38;5065422;28;20043;-73
2023/12/15 06:06:23;;;;;;;61.83;30.33;;;;;;;7.34;100.00;102937.84;5066116;28;20044;-74
2023/12/15 06:08:50;;;;;;;64.70;29.95;;;;;;;7.37;100.00;102937.00;5064852;28;20106;-73
2023/12/15 06:11:18;;;;;;;52.70;26.17;;;;;;;7.40;100.00;102935.31;5064891;28;20053;-73
2023/12/15 06:13:45;;;;;;;62.42;29.75;;;;;;;7.47;100.00;102938.91;5065811;28;20048;-74
2023/12/15 06:16:20;;;;;;;62.63;27.17;;;;;;;7.49;100.00;102952.06;5063922;28;20128;-74
2023/12/15 06:18:48;;;;;;;61.10;29.83;;;;;;;7.51;100.00;102953.88;5065691;28;20548;-74
2023/12/15 06:21:23;;;;;;;59.83;27.27;;;;;;;7.51;100.00;102961.75;5062676;28;20049;-74
2023/12/15 06:23:51;;;;;;;68.43;28.58;;;;;;;7.48;100.00;102960.81;5061682;28;20102;-71
2023/12/15 06:26:24;;;;;;;59.83;27.75;;;;;;;7.42;100.00;102965.09;5059676;28;20052;-71
2023/12/15 06:28:53;;;;;;;65.18;28.60;;;;;;;7.36;100.00;102972.88;5079405;28;20040;-71
2023/12/15 06:31:21;;;;;;;62.45;29.27;;;;;;;7.29;100.00;102971.88;5058811;28;20067;-71
2023/12/15 06:33:48;;;;;;;65.18;30.00;;;;;;;7.24;100.00;102984.00;5064233;28;20139;-71
2023/12/15 06:36:18;;;;;;;63.05;30.83;;;;;;;7.21;100.00;102989.22;5057714;28;20135;-71
2023/12/15 06:38:48;;;;;;;67.00;29.02;;;;;;;7.17;100.00;102987.38;5076128;28;20127;-71
2023/12/15 06:41:15;;;;;;;74.20;30.88;;;;;;;7.15;100.00;102990.00;5062852;28;20047;-71
2023/12/15 06:43:45;;;;;;;71.10;30.30;;;;;;;7.14;100.00;102988.22;5064015;28;20120;-71
2023/12/15 06:46:12;;;;;;;64.32;30.27;;;;;;;7.13;100.00;102996.03;5062421;28;20048;-71
2023/12/15 06:48:40;;;;;;;66.65;30.02;;;;;;;7.11;100.00;102996.03;5068511;28;20044;-72
2023/12/15 06:51:07;;;;;;;73.95;30.10;;;;;;;7.12;100.00;102984.69;5077688;28;20040;-72
2023/12/15 06:53:34;;;;;;;70.53;30.40;;;;;;;7.12;100.00;102982.06;5057489;28;20095;-71
2023/12/15 06:56:02;;;;;;;71.10;31.85;;;;;;;7.13;100.00;102991.69;5052519;28;20047;-71
2023/12/15 06:58:29;;;;;;;78.68;33.22;;;;;;;7.14;100.00;102992.56;5054898;28;20411;-70
2023/12/15 07:00:56;;;;;;;68.00;29.75;;;;;;;7.12;100.00;102997.78;5053310;28;20047;-72
2023/12/15 07:03:23;;;;;;;75.47;32.25;;;;;;;7.13;100.00;102994.31;5059552;28;20041;-72
2023/12/15 07:05:51;;;;;;;69.97;30.02;;;;;;;7.14;100.00;102997.81;5065148;28;20036;-72
2023/12/15 07:08:18;;;;;;;67.68;31.45;;;;;;;7.14;100.00;103017.06;5065965;28;20044;-72
2023/12/15 07:10:45;;;;;;;73.68;31.73;;;;;;;7.15;100.00;103026.72;5067443;28;20199;-72
2023/12/15 07:13:13;;;;;;;67.20;30.77;;;;;;;7.13;100.00;103017.94;5067245;28;20522;-72
2023/12/15 07:15:40;;;;;;;71.47;33.35;;;;;;;7.15;100.00;103021.47;5067493;28;20588;-72
2023/12/15 07:18:07;;;;;;;76.50;32.53;;;;;;;7.15;100.00;103025.81;5083032;28;20131;-72
2023/12/15 07:20:34;;;;;;;69.55;30.35;;;;;;;7.14;100.00;103024.94;5065837;28;20141;-72
2023/12/15 07:23:01;;;;;;;70.45;31.05;;;;;;;7.17;100.00;103023.25;5064382;28;20043;-72
2023/12/15 07:25:28;;;;;;;86.32;33.78;;;;;;;7.19;100.00;103032.00;5060775;28;20311;-72
2023/12/15 07:27:55;;;;;;;72.05;32.17;;;;;;;7.17;100.00;103033.72;5054942;28;20091;-72
2023/12/15 07:30:22;;;;;;;78.07;32.67;;;;;;;7.19;100.00;103039.88;5081403;28;20131;-72
2023/12/15 07:32:49;;;;;;;84.00;33.35;;;;;;;7.19;100.00;103040.78;5069633;28;20110;-72
2023/12/15 07:35:17;;;;;;;78.75;31.73;;;;;;;7.18;100.00;103045.97;5069479;28;20638;-72
2023/12/15 07:37:58;;;;;;;75.18;34.33;;;;;;;7.19;100.00;103042.50;5069400;28;20563;-72
2023/12/15 07:40:25;;;;;;;81.53;33.40;;;;;;;7.19;100.00;103042.50;5069820;28;20040;-72
2023/12/15 07:42:52;;;;;;;78.47;34.85;;;;;;;7.19;100.00;103066.09;5071244;28;20094;-72
2023/12/15 07:45:19;;;;;;;76.68;31.90;;;;;;;7.19;100.00;103058.22;5069989;28;20033;-72
2023/12/15 07:47:47;;;;;;;87.93;33.90;;;;;;;7.20;100.00;103063.53;5070107;28;20128;-72
2023/12/15 07:50:14;;;;;;;75.75;33.85;;;;;;;7.23;100.00;103068.81;5071054;28;20044;-72
2023/12/15 07:52:41;;;;;;;86.28;34.45;;;;;;;7.25;100.00;103064.50;5068087;28;20098;-72
2023/12/15 07:55:08;;;;;;;89.90;34.75;;;;;;;7.27;100.00;103068.03;5068087;28;20547;-72
2023/12/15 07:57:35;;;;;;;86.18;34.08;;;;;;;7.29;100.00;103070.69;5070805;28;20397;-72
2023/12/15 08:00:05;;;;;;;82.88;33.70;;;;;;;7.30;100.00;103077.69;5085873;28;20040;-72
2023/12/15 08:02:38;;;;;;;89.93;34.15;;;;;;;7.30;100.00;103081.22;5068679;28;20047;-72
2023/12/15 08:05:05;;;;;;;82.43;34.55;;;;;;;7.30;100.00;103081.22;5069382;28;20765;-72
2023/12/15 08:07:32;;;;;;;85.28;35.33;;;;;;;7.31;100.00;103082.09;5073212;28;20044;-72
2023/12/15 08:10:00;;;;;;;86.25;33.67;;;;;;;7.32;100.00;103086.50;5066315;28;20048;-70
2023/12/15 08:12:27;;;;;;;86.60;33.70;;;;;;;7.34;100.00;103090.03;5068596;28;20137;-70
2023/12/15 08:14:54;;;;;;;87.32;35.85;;;;;;;7.36;100.00;103090.94;5069372;28;20403;-70
2023/12/15 08:17:21;;;;;;;86.75;36.60;;;;;;;7.39;100.00;103093.63;5069633;28;20051;-70
2023/12/15 08:19:49;;;;;;;88.05;35.67;;;;;;;7.42;100.00;103098.06;5070080;28;20492;-71
2023/12/15 08:22:16;;;;;;;85.78;34.50;;;;;;;7.43;100.00;103113.81;5069799;28;20041;-71
2023/12/15 08:24:43;;;;;;;95.45;38.75;;;;;;;7.44;100.00;103123.47;5067632;28;20127;-71
2023/12/15 08:27:10;;;;;;;85.70;35.67;;;;;;;7.44;100.00;103127.81;5068834;28;20127;-71
2023/12/15 08:29:37;;;;;;;77.47;34.08;;;;;;;7.43;100.00;103131.28;5069324;28;20051;-71
2023/12/15 08:32:04;;;;;;;86.13;35.40;;;;;;;7.42;100.00;103132.19;5068642;28;20575;-71
2023/12/15 08:34:32;;;;;;;88.80;36.30;;;;;;;7.44;100.00;103140.94;5069010;28;20182;-71
2023/12/15 08:36:59;;;;;;;76.25;33.97;;;;;;;7.46;100.00;103148.00;5068300;28;20060;-71
2023/12/15 08:39:27;;;;;;;80.53;33.65;;;;;;;7.46;100.00;103142.75;5067098;28;20048;-70
2023/12/15 08:41:54;;;;;;;88.47;37.15;;;;;;;7.49;100.00;103141.03;5081648;28;20052;-72
2023/12/15 08:44:21;;;;;;;89.90;37.20;;;;;;;7.53;100.00;103153.38;5064392;28;20131;-71
2023/12/15 08:46:59;;;;;;;82.07;36.47;;;;;;;7.53;100.00;103153.38;5068719;28;20037;-72
2023/12/15 08:49:27;;;;;;;74.25;34.97;;;;;;;7.53;100.00;103156.88;5068403;28;20516;-72
2023/12/15 08:51:54;;;;;;;77.45;34.72;;;;;;;7.56;100.00;103170.06;5074467;28;20043;-72
2023/12/15 08:54:21;;;;;;;80.07;33.40;;;;;;;7.60;100.00;103171.91;5083111;28;20052;-72
2023/12/15 08:56:48;;;;;;;83.72;35.78;;;;;;;7.63;100.00;103178.06;5083565;28;20068;-72
2023/12/15 08:59:16;;;;;;;79.25;34.25;;;;;;;7.65;100.00;103178.97;5068966;28;20051;-72
2023/12/15 09:01:43;;;;;;;81.85;35.92;;;;;;;7.67;100.00;103182.50;5082323;28;20033;-72
2023/12/15 09:04:10;;;;;;;86.28;34.47;;;;;;;7.68;100.00;103179.91;5068959;28;20032;-72
2023/12/15 09:06:37;;;;;;;73.35;34.00;;;;;;;7.70;100.00;103186.06;5083088;28;20051;-72
2023/12/15 09:09:11;;;;;;;73.60;35.92;;;;;;;7.72;100.00;103186.13;5067989;28;20106;-72
2023/12/15 09:11:39;;;;;;;73.45;33.58;;;;;;;7.74;100.00;103177.41;5084060;28;20056;-72
2023/12/15 09:14:07;;;;;;;69.78;32.08;;;;;;;7.78;100.00;103188.84;5083222;28;20368;-71
2023/12/15 09:16:34;;;;;;;73.63;32.30;;;;;;;7.82;100.00;103192.41;5067925;28;20039;-71
2023/12/15 09:19:02;;;;;;;77.53;34.05;;;;;;;7.84;100.00;103190.72;5083970;28;20040;-72
2023/12/15 09:21:29;;;;;;;69.57;34.97;;;;;;;7.89;100.00;103213.59;5054146;28;20076;-72
2023/12/15 09:23:57;;;;;;;68.45;32.15;;;;;;;7.93;100.00;103217.16;5057978;28;20044;-72
2023/12/15 09:26:26;;;;;;;64.05;32.55;;;;;;;7.98;100.00;103218.13;5067335;28;20045;-72
2023/12/15 09:28:53;;;;;;;69.78;33.33;;;;;;;8.00;100.00;103218.16;5069135;28;20072;-72
2023/12/15 09:31:21;;;;;;;64.93;33.33;;;;;;;8.02;100.00;103219.06;5082799;28;20044;-72
2023/12/15 09:33:48;;;;;;;65.85;33.22;;;;;;;8.06;100.00;103228.75;5068607;28;20159;-72
2023/12/15 09:36:16;;;;;;;64.22;31.33;;;;;;;8.09;100.00;103224.44;5065761;28;20579;-72
2023/12/15 09:38:43;;;;;;;64.55;30.90;;;;;;;8.13;100.00;103232.41;5068908;28;20567;-72
2023/12/15 09:41:10;;;;;;;68.28;32.30;;;;;;;8.15;100.00;103230.69;5067387;28;20048;-72
2023/12/15 09:43:38;;;;;;;67.35;32.65;;;;;;;8.15;100.00;103249.94;5067783;28;20041;-72
2023/12/15 09:46:06;;;;;;;67.53;34.72;;;;;;;8.17;100.00;103256.13;5065320;28;20559;-72
2023/12/15 09:48:34;;;;;;;72.30;33.17;;;;;;;8.18;100.00;103262.28;5066350;28;20446;-72
2023/12/15 09:51:07;;;;;;;72.13;31.48;;;;;;;8.21;100.00;103267.56;5066795;28;20052;-72
2023/12/15 09:53:37;;;;;;;60.28;30.98;;;;;;;8.22;100.00;103275.50;5081332;28;21075;-72
2023/12/15 09:56:05;;;;;;;69.40;31.73;;;;;;;8.24;100.00;103280.78;5065970;28;20040;-72
2023/12/15 09:58:34;;;;;;;68.95;33.28;;;;;;;8.26;100.00;103281.69;5067924;28;20051;-72
2023/12/15 10:01:03;;;;;;;64.30;31.92;;;;;;;8.29;100.00;103287.00;5067382;28;20060;-72
2023/12/15 10:03:31;;;;;;;72.47;32.08;;;;;;;8.35;100.00;103294.09;5065195;28;20067;-72
2023/12/15 10:05:58;;;;;;;64.55;31.75;;;;;;;8.36;100.00;103290.63;5066186;28;20047;-72
2023/12/15 10:08:45;;;;;;;56.67;30.08;;;;;;;8.38;100.00;103284.56;5081888;28;20036;-72
2023/12/15 10:11:33;;;;;;;64.25;33.15;;;;;;;8.44;100.00;103288.13;5048219;28;20041;-72
2023/12/15 10:14:07;;;;;;;59.45;29.15;;;;;;;8.49;100.00;103292.66;5065091;28;20076;-72
2023/12/15 10:16:36;;;;;;;;;;;;;;;8.50;100.00;103289.16;5066058;28;20045;-72
2023/12/15 10:19:08;;;;;;;58.90;30.92;;;;;;;8.54;100.00;103296.25;5066285;28;19929;-72
2023/12/15 10:21:36;;;;;;;56.78;28.15;;;;;;;8.57;100.00;103303.31;5084282;28;20520;-72
2023/12/15 10:24:22;;;;;;;64.55;32.10;;;;;;;8.61;100.00;103305.13;5066578;28;20047;-72
2023/12/15 10:26:51;;;;;;;63.97;30.80;;;;;;;8.61;100.00;103312.13;5068138;28;20113;-72
2023/12/15 10:29:19;;;;;;;65.20;31.67;;;;;;;8.62;100.00;103308.66;5067060;28;20055;-72
2023/12/15 10:31:51;;;;;;;60.28;29.00;;;;;;;8.64;100.00;103314.81;5068203;28;20067;-72
2023/12/15 10:34:23;;;;;;;65.45;31.48;;;;;;;8.67;100.00;103317.50;5067012;28;20429;-72
2023/12/15 10:36:53;;;;;;;58.22;29.70;;;;;;;8.70;100.00;103315.78;5066330;28;20051;-72
2023/12/15 10:39:21;;;;;;;60.70;30.63;;;;;;;8.74;100.00;103326.38;5080665;28;20097;-72
2023/12/15 10:41:51;;;;;;;63.20;30.77;;;;;;;8.77;100.00;103334.31;5067585;28;20669;-72
2023/12/15 10:44:20;;;;;;;59.55;27.58;;;;;;;8.75;100.00;103350.06;5082085;28;20660;-72
2023/12/15 10:46:48;;;;;;;55.17;25.38;;;;;;;8.72;100.00;103351.75;5066061;28;20075;-72
2023/12/15 10:49:16;;;;;;;63.38;27.35;;;;;;;8.70;100.00;103362.25;5067100;28;20051;-72
2023/12/15 10:51:44;;;;;;;54.90;28.38;;;;;;;8.69;100.00;103361.38;5066791;28;20098;-72
2023/12/15 10:54:15;;;;;;;61.30;28.20;;;;;;;8.66;100.00;103356.06;5065892;28;20962;-72
2023/12/15 10:56:42;;;;;;;50.22;28.38;;;;;;;8.66;100.00;103368.31;5066293;28;20041;-72
2023/12/15 10:59:10;;;;;;;55.17;28.05;;;;;;;8.66;100.00;103355.16;5067777;28;20049;-72
2023/12/15 11:01:40;;;;;;;57.00;28.10;;;;;;;8.69;100.00;103358.75;5067937;28;20043;-72
2023/12/15 11:04:20;;;;;;;52.25;27.25;;;;;;;8.73;100.00;103348.28;5069443;28;20059;-72
2023/12/15 11:06:49;;;;;;;48.97;26.02;;;;;;;8.78;100.00;103347.50;5064267;28;20029;-72
2023/12/15 11:09:30;;;;;;;48.10;26.38;;;;;;;8.84;100.00;103363.41;5062423;28;20052;-72
2023/12/15 11:12:33;;;;;;;53.08;26.13;;;;;;;8.86;100.00;103364.28;5070009;28;20424;-72
2023/12/15 11:15:06;;;;;;;54.05;26.55;;;;;;;8.89;100.00;103373.09;5050371;28;20043;-72